Scotch Plains, New Jersey
Current Conditions -  °F | °C
As of 11:15 PM on Saturday 25 Oct 2014 (Local Time) from KLDJ Reporting Station
Scattered Clouds Scattered Clouds  
Wind Chill: 65°   Ceiling: Unl
Heat Index: 65°   Visibility: 10mi
Dew Point: 48°   Wind: 7mph
Humidity: 54%   Direction: 270°W
Pressure: 29.61"   Gusts: NA
Location:  40.65°N, 74.4°W
Report Text: KLDJ 260315Z AUTO 27006KT 10SM SCT100 18/09 A2961 RMK AO2 T01820087
Loading
Personal Weather Stations






























Interactive Weather Map New forecast layout! Learn more

10-Day Weather Forecast

Advertisements
Track Severe Weather on mobile